Time;durP1;ratioP1;P1;durP2;ratioP2;P2;SDS_P1;SDS_P2;PMS_P1;PMS_P2;Temp;Humidity;BMP_temperature;BMP_pressure;BME280_temperature;BME280_humidity;BME280_pressure;Samples;Min_cycle;Max_cycle;Signal;HPM_P1;HPM_P2
2024/04/15 00:02:19;;;;;;;;;;;10.60;99.90;;;;;;9031160;26;19924;-73
2024/04/15 00:06:21;;;;;;;;;;;10.50;99.90;;;;;;9042316;26;19952;-73
2024/04/15 00:10:23;;;;;;;;;;;10.40;99.90;;;;;;9048558;26;19960;-73
2024/04/15 00:14:25;;;;;;;;;;;10.40;99.90;;;;;;9041568;26;20364;-73
2024/04/15 00:18:27;;;;;;;;;;;10.30;99.90;;;;;;9041123;26;19925;-74
2024/04/15 00:22:28;;;;;;;;;;;10.30;99.90;;;;;;9037637;26;20348;-73
2024/04/15 00:26:30;;;;;;;;;;;10.20;99.90;;;;;;9043297;26;19936;-73
2024/04/15 00:30:32;;;;;;;;;;;10.20;99.90;;;;;;9020283;26;19924;-73
2024/04/15 00:34:34;;;;;;;;;;;10.20;99.90;;;;;;9039107;26;19959;-73
2024/04/15 00:38:36;;;;;;;;;;;10.10;99.90;;;;;;9043513;26;20666;-73
2024/04/15 00:42:38;;;;;;;;;;;10.00;99.90;;;;;;9029244;26;19953;-73
2024/04/15 00:46:39;;;;;;;;;;;9.90;99.90;;;;;;9036033;26;19924;-73
2024/04/15 00:50:49;;;;;;;;;;;9.90;99.90;;;;;;9030291;26;19933;-73
2024/04/15 00:54:50;;;;;;;;;;;9.90;99.90;;;;;;9047184;26;19939;-73
2024/04/15 00:58:52;;;;;;;;;;;9.90;99.90;;;;;;9031411;26;19923;-73
2024/04/15 01:02:55;;;;;;;;;;;9.90;99.90;;;;;;9050342;26;20409;-73
2024/04/15 01:06:57;;;;;;;;;;;9.90;99.90;;;;;;9051218;26;19952;-73
2024/04/15 01:10:59;;;;;;;;;;;9.90;99.90;;;;;;9064541;26;19923;-73
2024/04/15 01:15:05;;;;;;;;;;;10.00;99.90;;;;;;9031502;26;19924;-73
2024/04/15 01:19:07;;;;;;;;;;;10.00;99.90;;;;;;9021541;26;19960;-73
2024/04/15 01:23:10;;;;;;;;;;;10.10;99.90;;;;;;9071083;26;19952;-73
2024/04/15 01:27:11;;;;;;;;;;;10.10;99.90;;;;;;9031954;26;19961;-73
2024/04/15 01:31:13;;;;;;;;;;;10.10;99.90;;;;;;9038069;26;19952;-74
2024/04/15 01:35:15;;;;;;;;;;;10.10;99.90;;;;;;9035521;26;19924;-73
2024/04/15 01:39:17;;;;;;;;;;;10.00;99.90;;;;;;9024400;26;19994;-73
2024/04/15 01:43:19;;;;;;;;;;;9.90;99.90;;;;;;9026393;26;20300;-73
2024/04/15 01:47:21;;;;;;;;;;;9.90;99.90;;;;;;9031394;26;19924;-73
2024/04/15 01:51:22;;;;;;;;;;;9.90;99.90;;;;;;9026287;26;19925;-73
2024/04/15 01:55:24;;;;;;;;;;;9.90;99.90;;;;;;9035648;26;19949;-73
2024/04/15 01:59:26;;;;;;;;;;;9.90;99.90;;;;;;9024919;26;20365;-73
2024/04/15 02:03:28;;;;;;;;;;;9.90;99.90;;;;;;9029311;26;19925;-73
2024/04/15 02:07:29;;;;;;;;;;;9.90;99.90;;;;;;9029936;26;19924;-73
2024/04/15 02:11:31;;;;;;;;;;;9.90;99.90;;;;;;9052728;26;19948;-73
2024/04/15 02:15:33;;;;;;;;;;;9.80;99.90;;;;;;9027058;26;20161;-73
2024/04/15 02:19:35;;;;;;;;;;;9.70;99.90;;;;;;9032945;26;20378;-73
2024/04/15 02:23:36;;;;;;;;;;;9.70;99.90;;;;;;9036063;26;19931;-73
2024/04/15 02:27:38;;;;;;;;;;;9.60;99.90;;;;;;9021271;26;20369;-73
2024/04/15 02:31:40;;;;;;;;;;;9.60;99.90;;;;;;9019659;26;19928;-73
2024/04/15 02:35:42;;;;;;;;;;;9.60;99.90;;;;;;9035520;26;19936;-74
2024/04/15 02:39:44;;;;;;;;;;;9.50;99.90;;;;;;9029448;26;20735;-73
2024/04/15 02:43:45;;;;;;;;;;;9.40;99.90;;;;;;9025503;26;19943;-73
2024/04/15 02:47:47;;;;;;;;;;;9.40;99.90;;;;;;9018966;26;19964;-73
2024/04/15 02:51:51;;;;;;;;;;;9.40;99.90;;;;;;9027616;26;20325;-73
2024/04/15 02:55:54;;;;;;;;;;;9.40;99.90;;;;;;9041612;26;20278;-73
2024/04/15 02:59:55;;;;;;;;;;;9.30;99.90;;;;;;9030408;26;20386;-73
2024/04/15 03:03:57;;;;;;;;;;;9.30;99.90;;;;;;9053235;26;19924;-73
2024/04/15 03:07:59;;;;;;;;;;;9.20;99.90;;;;;;9041169;26;19923;-73
2024/04/15 03:12:01;;;;;;;;;;;9.20;99.90;;;;;;9045582;26;20267;-73
2024/04/15 03:16:03;;;;;;;;;;;9.20;99.90;;;;;;9035554;26;20248;-73
2024/04/15 03:20:13;;;;;;;;;;;9.20;99.90;;;;;;9069222;26;19940;-73
2024/04/15 03:24:15;;;;;;;;;;;9.10;99.90;;;;;;9055343;26;19931;-73
2024/04/15 03:28:16;;;;;;;;;;;9.10;99.90;;;;;;9041326;26;20263;-73
2024/04/15 03:32:18;;;;;;;;;;;9.10;99.90;;;;;;9044797;26;19969;-73
2024/04/15 03:36:20;;;;;;;;;;;9.10;99.90;;;;;;9034862;26;19932;-73
2024/04/15 03:40:22;;;;;;;;;;;9.10;99.90;;;;;;9033385;26;19939;-73
2024/04/15 03:44:24;;;;;;;;;;;9.10;99.90;;;;;;9035972;26;19940;-74
2024/04/15 03:48:25;;;;;;;;;;;9.10;99.90;;;;;;9041001;26;19935;-73
2024/04/15 03:52:27;;;;;;;;;;;9.10;99.90;;;;;;9037067;26;19932;-74
2024/04/15 03:56:29;;;;;;;;;;;9.20;99.90;;;;;;9044256;26;20424;-74
2024/04/15 04:00:31;;;;;;;;;;;9.20;99.90;;;;;;9039587;26;19931;-74
2024/04/15 04:04:33;;;;;;;;;;;9.20;99.90;;;;;;9035643;26;20363;-74
2024/04/15 04:08:34;;;;;;;;;;;9.20;99.90;;;;;;9035598;26;19924;-73
2024/04/15 04:12:36;;;;;;;;;;;9.30;99.90;;;;;;9061002;26;19948;-73
2024/04/15 04:16:38;;;;;;;;;;;9.30;99.90;;;;;;9052380;26;20031;-73
2024/04/15 04:20:40;;;;;;;;;;;9.30;99.90;;;;;;9037937;26;19923;-72
2024/04/15 04:24:41;;;;;;;;;;;9.30;99.90;;;;;;9036981;26;19956;-72
2024/04/15 04:28:43;;;;;;;;;;;9.30;99.90;;;;;;9043926;26;19924;-73
2024/04/15 04:32:45;;;;;;;;;;;9.30;99.90;;;;;;9044854;26;19924;-73
2024/04/15 04:36:48;;;;;;;;;;;9.30;99.90;;;;;;9039236;26;19992;-73
2024/04/15 04:40:56;;;;;;;;;;;9.20;99.90;;;;;;9044547;26;19952;-73
2024/04/15 04:44:58;;;;;;;;;;;9.10;99.90;;;;;;9051366;26;20453;-73
2024/04/15 04:49:00;;;;;;;;;;;9.10;99.90;;;;;;9035525;26;19924;-73
2024/04/15 04:53:01;;;;;;;;;;;9.00;99.90;;;;;;9055146;26;19996;-73
2024/04/15 04:57:04;;;;;;;;;;;8.90;99.90;;;;;;9039850;26;19930;-73
2024/04/15 05:01:09;;;;;;;;;;;8.90;99.90;;;;;;9035442;26;19956;-73
2024/04/15 05:05:10;;;;;;;;;;;8.90;99.90;;;;;;9027462;26;19924;-73
2024/04/15 05:09:12;;;;;;;;;;;8.90;99.90;;;;;;9035892;26;19924;-73
2024/04/15 05:13:14;;;;;;;;;;;8.90;99.90;;;;;;9053893;26;19930;-73
2024/04/15 05:17:17;;;;;;;;;;;8.80;99.90;;;;;;9041040;26;19924;-73
2024/04/15 05:21:19;;;;;;;;;;;8.90;99.90;;;;;;9035252;26;20359;-73
2024/04/15 05:25:20;;;;;;;;;;;8.90;99.90;;;;;;9033298;26;19924;-72
2024/04/15 05:29:22;;;;;;;;;;;8.90;99.90;;;;;;9024751;26;19931;-73
2024/04/15 05:33:24;;;;;;;;;;;8.90;99.90;;;;;;9038702;26;19931;-73
2024/04/15 05:37:26;;;;;;;;;;;8.90;99.90;;;;;;9021648;26;20356;-72
2024/04/15 05:41:28;;;;;;;;;;;8.90;99.90;;;;;;9038795;26;19935;-73
2024/04/15 05:45:29;;;;;;;;;;;8.90;99.90;;;;;;9031166;26;19925;-73
2024/04/15 05:49:37;;;;;;;;;;;8.70;99.90;;;;;;9037062;26;20003;-72
2024/04/15 05:53:39;;;;;;;;;;;8.70;99.90;;;;;;9041523;26;19924;-74
2024/04/15 05:57:41;;;;;;;;;;;8.70;99.90;;;;;;9076993;26;19924;-72
2024/04/15 06:01:43;;;;;;;;;;;8.70;99.90;;;;;;9047420;26;20281;-73
2024/04/15 06:05:44;;;;;;;;;;;8.80;99.90;;;;;;9035426;26;19943;-72
2024/04/15 06:09:46;;;;;;;;;;;8.90;99.90;;;;;;9035417;26;19964;-73
2024/04/15 06:13:48;;;;;;;;;;;9.00;99.90;;;;;;9044113;26;20355;-73
2024/04/15 06:17:50;;;;;;;;;;;9.10;99.90;;;;;;9069702;26;19924;-73
2024/04/15 06:21:52;;;;;;;;;;;9.30;99.90;;;;;;9075205;26;19924;-73
2024/04/15 06:25:54;;;;;;;;;;;9.40;99.90;;;;;;9046145;26;20372;-73
2024/04/15 06:29:56;;;;;;;;;;;9.50;99.90;;;;;;9047273;26;19931;-73
2024/04/15 06:33:59;;;;;;;;;;;9.60;99.90;;;;;;9053101;26;20367;-73
2024/04/15 06:38:01;;;;;;;;;;;9.60;99.90;;;;;;9029377;26;19924;-73
2024/04/15 06:42:03;;;;;;;;;;;9.60;99.90;;;;;;9035587;26;19925;-73
2024/04/15 06:46:05;;;;;;;;;;;9.70;99.90;;;;;;9036828;26;19956;-73
2024/04/15 06:50:07;;;;;;;;;;;9.80;99.90;;;;;;9026456;26;19928;-73
2024/04/15 06:54:09;;;;;;;7.18;2.05;;;10.00;99.90;;;;;;9038904;26;19993;-73
2024/04/15 06:58:11;;;;;;;4.65;1.60;;;10.10;99.90;;;;;;9045296;26;20007;-73
2024/04/15 07:02:13;;;;;;;4.70;1.98;;;10.30;99.90;;;;;;9058157;26;20018;-73
2024/04/15 07:06:16;;;;;;;8.77;2.75;;;10.50;99.90;;;;;;9047744;26;20477;-73
2024/04/15 07:10:18;;;;;;;9.45;2.58;;;10.60;99.90;;;;;;9030582;26;20506;-72
2024/04/15 07:14:20;;;;;;;7.47;2.30;;;10.60;99.90;;;;;;9057310;26;20010;-73
2024/04/15 07:18:22;;;;;;;7.03;2.00;;;10.50;99.90;;;;;;9043260;26;20013;-72
2024/04/15 07:22:24;;;;;;;7.90;2.10;;;10.40;99.90;;;;;;9030765;26;20018;-72
2024/04/15 07:26:26;;;;;;;6.60;2.25;;;10.30;99.90;;;;;;9028596;26;20003;-73
2024/04/15 07:30:28;;;;;;;9.68;2.10;;;10.20;99.90;;;;;;9021272;26;20039;-72
2024/04/15 07:34:30;;;;;;;8.25;2.13;;;10.20;99.90;;;;;;9021531;26;20002;-73
2024/04/15 07:38:32;;;;;;;7.38;2.55;;;10.20;99.90;;;;;;9033867;26;20006;-72
2024/04/15 07:42:34;;;;;;;8.35;2.70;;;10.20;99.90;;;;;;9033432;26;20329;-73
2024/04/15 07:46:45;;;;;;;8.32;3.33;;;10.30;99.90;;;;;;9060313;26;20002;-73
2024/04/15 07:50:47;;;;;;;10.05;3.88;;;10.30;99.90;;;;;;9068344;26;20350;-73
2024/04/15 07:54:49;;;;;;;8.93;3.30;;;10.30;99.90;;;;;;9061325;26;20042;-73
2024/04/15 07:58:50;;;;;;;10.40;4.10;;;10.40;99.90;;;;;;9050915;26;20034;-73
2024/04/15 08:02:52;;;;;;;10.32;4.90;;;10.40;99.90;;;;;;9059401;26;20006;-73
2024/04/15 08:06:54;;;;;;;7.68;3.53;;;10.50;99.90;;;;;;9064467;26;20081;-73
2024/04/15 08:11:13;;;;;;;9.98;3.75;;;10.50;99.90;;;;;;9063621;26;20010;-74
2024/04/15 08:15:15;;;;;;;10.25;3.85;;;10.50;99.90;;;;;;9057402;26;20017;-74
2024/04/15 08:19:17;;;;;;;7.65;3.67;;;10.50;99.90;;;;;;9063679;26;20445;-72
2024/04/15 08:23:19;;;;;;;8.70;3.85;;;10.40;99.90;;;;;;9064274;26;20010;-73
2024/04/15 08:27:21;;;;;;;7.65;3.70;;;10.40;99.90;;;;;;9063749;26;20037;-72
2024/04/15 08:31:23;;;;;;;9.85;3.90;;;10.50;99.90;;;;;;9061062;26;20606;-73
2024/04/15 08:35:25;;;;;;;8.05;4.20;;;10.60;99.90;;;;;;9063046;26;20330;-73
2024/04/15 08:39:27;;;;;;;15.20;4.30;;;10.70;99.90;;;;;;9060553;26;20379;-72
2024/04/15 08:43:29;;;;;;;;;;;10.70;99.90;;;;;;9059742;26;19931;-72
2024/04/15 08:47:34;;;;;;;8.93;4.35;;;10.80;99.90;;;;;;9062237;26;19924;-72
2024/04/15 08:51:36;;;;;;;8.65;3.90;;;10.90;99.90;;;;;;9061411;26;20006;-72
2024/04/15 08:55:38;;;;;;;11.80;3.78;;;10.90;99.90;;;;;;9062674;26;20020;-73
2024/04/15 08:59:43;;;;;;;8.90;3.65;;;11.00;99.90;;;;;;9066942;26;20042;-73
2024/04/15 09:03:46;;;;;;;;;;;11.00;99.90;;;;;;9059243;26;20010;-73
2024/04/15 09:07:49;;;;;;;;;;;11.00;99.90;;;;;;9064228;26;19927;-73
2024/04/15 09:11:52;;;;;;;;;;;11.10;99.90;;;;;;9063359;26;20352;-73
2024/04/15 09:15:56;;;;;;;;;;;11.10;99.90;;;;;;9062387;26;19931;-73
2024/04/15 09:19:57;;;;;;;;;;;11.20;99.90;;;;;;9058845;26;19935;-73
2024/04/15 09:23:59;;;;;;;;;;;11.10;99.90;;;;;;9061305;26;19924;-73
2024/04/15 09:28:04;;;;;;;;;;;11.20;99.90;;;;;;9065323;26;19944;-73
2024/04/15 09:32:07;;;;;;;;;;;11.20;99.90;;;;;;9060707;26;19935;-73
2024/04/15 09:36:08;;;;;;;;;;;11.20;99.90;;;;;;9068498;26;19992;-73
2024/04/15 09:40:13;;;;;;;;;;;11.10;99.90;;;;;;9068474;26;19935;-72
2024/04/15 09:44:16;;;;;;;;;;;11.10;99.90;;;;;;9055571;26;19924;-72
2024/04/15 09:48:22;;;;;;;;;;;11.10;99.90;;;;;;9052849;26;19945;-73
2024/04/15 09:52:29;;;;;;;;;;;11.20;99.90;;;;;;9063169;26;19947;-72
2024/04/15 09:56:32;;;;;;;;;;;11.20;99.90;;;;;;9061771;26;19996;-72
2024/04/15 10:00:36;;;;;;;;;;;11.20;99.90;;;;;;9093955;25;19935;-72
2024/04/15 10:04:39;;;;;;;;;;;11.20;99.90;;;;;;9050613;26;19931;-72
2024/04/15 10:08:41;;;;;;;;;;;11.10;99.90;;;;;;9064467;26;19924;-72
2024/04/15 10:12:44;;;;;;;;;;;10.90;99.90;;;;;;9066455;26;20074;-73
2024/04/15 10:16:49;;;;;;;9.15;3.42;;;10.50;99.90;;;;;;9064169;26;20347;-74
2024/04/15 10:20:51;;;;;;;8.70;3.25;;;10.40;99.90;;;;;;9067544;26;20034;-73
2024/04/15 10:24:55;;;;;;;5.07;2.67;;;10.40;99.90;;;;;;9064877;26;20035;-73
2024/04/15 10:29:16;;;;;;;6.38;2.85;;;10.50;99.90;;;;;;9069501;26;20010;-73
2024/04/15 10:33:20;;;;;;;6.18;2.83;;;10.50;99.90;;;;;;9068435;26;20074;-74
2024/04/15 10:37:29;;;;;;;6.00;3.20;;;10.50;99.90;;;;;;9061869;26;20432;-73
2024/04/15 10:41:31;;;;;;;7.82;2.85;;;10.30;99.90;;;;;;9062203;26;20002;-74
2024/04/15 10:45:33;;;;;;;7.23;3.00;;;10.10;99.90;;;;;;9065187;26;20026;-73
2024/04/15 10:49:35;;;;;;;5.78;2.85;;;9.90;99.90;;;;;;9067392;26;20020;-73
2024/04/15 10:53:37;;;;;;;8.43;3.13;;;9.70;99.90;;;;;;9066871;26;20003;-74
2024/04/15 10:57:41;;;;;;;7.03;3.30;;;9.50;99.90;;;;;;9059665;26;20384;-73
2024/04/15 11:01:47;;;;;;;8.90;3.17;;;9.30;99.90;;;;;;9058980;26;20010;-74
2024/04/15 11:05:49;;;;;;;7.53;2.70;;;9.20;99.90;;;;;;9048962;26;20042;-74
2024/04/15 11:09:50;;;;;;;9.75;2.92;;;9.20;99.90;;;;;;9066045;26;20006;-74
2024/04/15 11:13:53;;;;;;;6.38;3.13;;;9.10;99.90;;;;;;9064084;26;20080;-75
2024/04/15 11:17:55;;;;;;;6.53;2.55;;;9.10;99.90;;;;;;9065679;26;20006;-74
2024/04/15 11:22:05;;;;;;;8.02;3.10;;;9.10;99.90;;;;;;9059753;26;20006;-74
2024/04/15 11:26:12;;;;;;;6.63;2.95;;;9.30;99.90;;;;;;9062502;26;20369;-73
2024/04/15 11:30:22;;;;;;;6.95;2.80;;;9.50;99.90;;;;;;9060695;26;20339;-73
2024/04/15 11:34:24;;;;;;;5.82;2.42;;;9.50;99.90;;;;;;9069503;26;20017;-73
2024/04/15 11:38:26;;;;;;;6.43;3.00;;;9.70;99.90;;;;;;9065882;26;20079;-73
2024/04/15 11:42:29;;;;;;;7.83;2.70;;;9.60;99.90;;;;;;9069340;26;20454;-74
2024/04/15 11:46:31;;;;;;;8.67;2.63;;;9.50;99.90;;;;;;9065374;26;20248;-73
2024/04/15 11:50:33;;;;;;;6.70;2.75;;;9.60;99.90;;;;;;9063871;26;20358;-73
2024/04/15 11:54:37;;;;;;;;;;;9.60;99.90;;;;;;9067446;26;20078;-73
2024/04/15 11:58:40;;;;;;;;;;;9.70;99.90;;;;;;9056647;26;19952;-73
2024/04/15 12:02:43;;;;;;;;;;;9.70;99.90;;;;;;9065700;26;19931;-75
2024/04/15 12:06:45;;;;;;;;;;;9.70;99.90;;;;;;9068057;26;19936;-74
2024/04/15 12:10:47;;;;;;;;;;;9.70;99.90;;;;;;9063401;26;19927;-75
2024/04/15 12:14:49;;;;;;;;;;;9.90;99.90;;;;;;9063459;26;19924;-74
2024/04/15 12:18:51;;;;;;;;;;;10.00;99.90;;;;;;9064964;26;20399;-75
2024/04/15 12:22:53;;;;;;;;;;;10.10;99.90;;;;;;9057449;26;19931;-75
2024/04/15 12:26:55;;;;;;;;;;;10.20;99.90;;;;;;9055104;26;19927;-73
2024/04/15 12:30:57;;;;;;;;;;;10.10;99.90;;;;;;9058053;26;19943;-73
2024/04/15 12:34:59;;;;;;;;;;;9.90;99.90;;;;;;9054094;26;20335;-74
2024/04/15 12:39:01;;;;;;;;;;;9.70;99.90;;;;;;9048583;26;19955;-75
2024/04/15 12:43:03;;;;;;;;;;;9.50;99.90;;;;;;9056148;26;21909;-74
2024/04/15 12:47:05;;;;;;;;;;;9.40;99.90;;;;;;9058105;26;19992;-76
2024/04/15 12:51:07;;;;;;;;;;;9.30;99.90;;;;;;9055234;26;20018;-75
2024/04/15 12:55:09;;;;;;;;;;;9.30;99.90;;;;;;9056120;26;20052;-73
2024/04/15 12:59:11;;;;;;;2.80;0.90;;;8.20;99.90;;;;;;9054334;26;19931;-72
2024/04/15 13:03:13;;;;;;;1.83;0.95;;;7.10;99.90;;;;;;9048254;26;20034;-72
2024/04/15 13:07:15;;;;;;;;;;;6.40;99.90;;;;;;9056984;26;20021;-72
2024/04/15 13:11:17;;;;;;;;;;;6.00;99.90;;;;;;9053805;26;20735;-72
2024/04/15 13:15:20;;;;;;;;;;;5.80;99.90;;;;;;9054829;26;19928;-73
2024/04/15 13:19:22;;;;;;;;;;;5.70;99.90;;;;;;9060633;26;19973;-72
2024/04/15 13:23:24;;;;;;;;;;;5.70;99.90;;;;;;9049595;26;19936;-72
2024/04/15 13:27:25;;;;;;;;;;;5.80;99.90;;;;;;9046651;26;19924;-72
2024/04/15 13:31:27;;;;;;;;;;;5.80;99.90;;;;;;9043526;26;19938;-72
2024/04/15 13:35:29;;;;;;;;;;;5.90;99.90;;;;;;9050462;26;20395;-72
2024/04/15 13:39:31;;;;;;;;;;;6.00;99.90;;;;;;9057804;26;19923;-72
2024/04/15 13:43:33;;;;;;;;;;;6.00;99.90;;;;;;9053899;26;19999;-72
2024/04/15 13:47:35;;;;;;;;;;;6.00;99.90;;;;;;9046599;26;19924;-72
2024/04/15 13:51:36;;;;;;;;;;;6.10;99.90;;;;;;9052530;26;20004;-72
2024/04/15 13:55:38;;;;;;;;;;;6.00;99.90;;;;;;9053075;26;19925;-72
2024/04/15 13:59:40;;;;;;;;;;;6.10;99.90;;;;;;9048519;26;20266;-72
2024/04/15 14:03:43;;;;;;;2.85;0.90;;;6.10;99.90;;;;;;9070698;26;19924;-73
2024/04/15 14:07:45;;;;;;;2.05;0.70;;;6.20;99.90;;;;;;9051013;26;20021;-72
2024/04/15 14:11:47;;;;;;;3.65;0.88;;;6.30;99.90;;;;;;9078249;26;20006;-72
2024/04/15 14:15:49;;;;;;;3.00;1.20;;;6.40;99.90;;;;;;9056952;26;20010;-73
2024/04/15 14:19:51;;;;;;;5.85;1.10;;;6.40;99.90;;;;;;9042156;26;20021;-73
2024/04/15 14:23:57;;;;;;;3.42;1.00;;;6.40;99.90;;;;;;9059471;26;20085;-72
2024/04/15 14:28:00;;;;;;;3.83;1.10;;;6.50;99.90;;;;;;9057146;26;20016;-73
2024/04/15 14:32:02;;;;;;;3.85;0.95;;;6.60;99.90;;;;;;9062183;26;20022;-73
2024/04/15 14:36:05;;;;;;;;;;;6.80;99.90;;;;;;9053440;26;20006;-74
2024/04/15 14:40:07;;;;;;;4.25;0.80;;;7.20;99.90;;;;;;9061664;26;20266;-73
2024/04/15 14:44:23;;;;;;;;;;;7.90;99.90;;;;;;9062546;26;20002;-72
2024/04/15 14:48:25;;;;;;;;;;;8.50;99.90;;;;;;9063010;26;19935;-73
2024/04/15 14:52:27;;;;;;;;;;;9.10;99.90;;;;;;9063802;26;20353;-73
2024/04/15 14:56:29;;;;;;;;;;;9.30;99.90;;;;;;9050708;26;19996;-72
2024/04/15 15:00:30;;;;;;;;;;;8.90;99.90;;;;;;9066359;26;20427;-73
2024/04/15 15:04:32;;;;;;;;;;;8.60;99.90;;;;;;9068345;26;19956;-73
2024/04/15 15:08:34;;;;;;;;;;;8.60;99.90;;;;;;9065807;26;19935;-72
2024/04/15 15:12:36;;;;;;;;;;;8.90;99.90;;;;;;9060681;26;19930;-73
2024/04/15 15:16:38;;;;;;;;;;;10.10;99.90;;;;;;9062547;26;20333;-72
2024/04/15 15:20:40;;;;;;;;;;;11.00;99.90;;;;;;9059376;26;19932;-73
2024/04/15 15:24:42;;;;;;;;;;;11.40;99.90;;;;;;9072504;26;19923;-74
2024/04/15 15:28:43;;;;;;;;;;;11.00;99.90;;;;;;9062603;26;19930;-73
2024/04/15 15:32:51;;;;;;;;;;;10.60;99.90;;;;;;9061874;26;20275;-73
2024/04/15 15:36:53;;;;;;;;;;;10.20;99.90;;;;;;9063904;26;20007;-73
2024/04/15 15:40:55;;;;;;;;;;;10.20;99.90;;;;;;9061032;26;19924;-72
2024/04/15 15:44:57;;;;;;;;;;;11.00;99.90;;;;;;9065619;26;19932;-73
2024/04/15 15:48:59;;;;;;;;;;;11.80;99.90;;;;;;9060066;26;19924;-73
2024/04/15 15:53:02;;;;;;;;;;;12.80;99.90;;;;;;9060450;26;19960;-74
2024/04/15 15:57:04;;;;;;;;;;;13.60;99.90;;;;;;9063329;26;19955;-73
2024/04/15 16:01:06;;;;;;;;;;;13.90;99.90;;;;;;9058982;26;19993;-73
2024/04/15 16:05:08;;;;;;;;;;;13.30;99.90;;;;;;9053043;26;19932;-73
2024/04/15 16:09:37;;;;;;;;;;;12.10;99.90;;;;;;9058120;26;19992;-73
2024/04/15 16:13:40;;;;;;;;;;;11.10;99.90;;;;;;9060934;26;19983;-74
2024/04/15 16:17:42;;;;;;;;;;;10.10;99.90;;;;;;9051361;26;19964;-74
2024/04/15 16:21:44;;;;;;;;;;;10.00;99.90;;;;;;9055588;26;19991;-74
2024/04/15 16:25:46;;;;;;;;;;;10.70;99.90;;;;;;9065003;26;19931;-74
2024/04/15 16:50:05;;;;;;;;;;;10.00;99.90;;;;;;9066644;26;19987;-73
2024/04/15 16:54:06;;;;;;;;;;;9.60;99.90;;;;;;9060743;26;19963;-73
2024/04/15 16:58:09;;;;;;;;;;;9.70;99.90;;;;;;9058734;26;20300;-73
2024/04/15 17:02:10;;;;;;;;;;;10.80;99.90;;;;;;9037876;26;19971;-73
2024/04/15 17:06:12;;;;;;;;;;;11.60;99.90;;;;;;9057062;26;19957;-74
2024/04/15 17:10:14;;;;;;;;;;;12.20;99.90;;;;;;9054475;26;19930;-74
2024/04/15 17:14:16;;;;;;;;;;;12.60;99.90;;;;;;9056189;26;19936;-74
2024/04/15 17:18:18;;;;;;;;;;;12.90;99.90;;;;;;9050379;26;20352;-74
2024/04/15 17:22:35;;;;;;;;;;;12.40;99.90;;;;;;9049252;26;19992;-73
2024/04/15 17:26:55;;;;;;;;;;;11.50;99.90;;;;;;9060405;26;20302;-74
2024/04/15 17:30:57;;;;;;;;;;;10.60;99.90;;;;;;9061755;26;19971;-74
2024/04/15 17:35:00;;;;;;;;;;;10.00;99.90;;;;;;9060007;26;19924;-73
2024/04/15 17:39:02;;;;;;;;;;;9.70;99.90;;;;;;9065449;26;20367;-74
2024/04/15 17:43:04;;;;;;;;;;;9.40;99.90;;;;;;9059284;26;19936;-74
2024/04/15 17:47:06;;;;;;;;;;;9.20;99.90;;;;;;9062692;26;20432;-74
2024/04/15 17:51:09;;;;;;;;;;;9.10;99.90;;;;;;9088929;26;19928;-74
2024/04/15 17:55:16;;;;;;;;;;;9.10;99.90;;;;;;9051576;26;19935;-73
2024/04/15 17:59:18;;;;;;;;;;;9.00;99.90;;;;;;9059774;26;19924;-73
2024/04/15 18:03:20;;;;;;;;;;;9.00;99.90;;;;;;9061758;26;19924;-73
2024/04/15 18:07:22;;;;;;;;;;;9.00;99.90;;;;;;9064221;26;19932;-75
2024/04/15 18:11:25;;;;;;;;;;;8.50;99.90;;;;;;9068946;26;19936;-75
2024/04/15 18:15:27;;;;;;;;;;;7.90;99.90;;;;;;9060166;26;19928;-73
2024/04/15 18:19:29;;;;;;;;;;;7.50;99.90;;;;;;9070367;26;19931;-75
2024/04/15 18:23:31;;;;;;;;;;;7.30;99.90;;;;;;9075084;26;20294;-74
2024/04/15 18:27:33;;;;;;;;;;;7.10;99.90;;;;;;9073154;26;19930;-75
2024/04/15 18:31:34;;;;;;;;;;;7.10;99.90;;;;;;9072097;26;19938;-74
2024/04/15 18:35:36;;;;;;;;;;;7.00;99.90;;;;;;9063772;26;19924;-74
2024/04/15 18:39:38;;;;;;;;;;;6.90;99.90;;;;;;9063020;26;19994;-74
2024/04/15 18:43:40;;;;;;;;;;;6.80;99.90;;;;;;9063222;26;19924;-76
2024/04/15 18:47:42;;;;;;;;;;;6.80;99.90;;;;;;9062631;26;20667;-76
2024/04/15 18:51:44;;;;;;;;;;;6.80;99.90;;;;;;9058947;26;19940;-74
2024/04/15 18:55:46;;;;;;;;;;;6.90;99.90;;;;;;9058068;26;19924;-76
2024/04/15 19:00:25;;;;;;;;;;;6.90;99.90;;;;;;9057487;26;19930;-75
2024/04/15 19:04:27;;;;;;;;;;;6.60;99.90;;;;;;9065967;26;19932;-75
2024/04/15 19:08:29;;;;;;;;;;;6.40;99.90;;;;;;9071890;26;19992;-75
2024/04/15 19:12:31;;;;;;;;;;;6.30;99.90;;;;;;9062304;26;19923;-75
2024/04/15 19:16:33;;;;;;;;;;;6.20;99.90;;;;;;9067316;26;20000;-75
2024/04/15 19:20:34;;;;;;;;;;;6.20;99.90;;;;;;9100215;26;20729;-75
2024/04/15 19:24:37;;;;;;;;;;;6.20;99.90;;;;;;9062375;26;19927;-75
2024/04/15 19:28:39;;;;;;;;;;;6.30;99.90;;;;;;9066462;26;19923;-75
2024/04/15 19:32:41;;;;;;;;;;;6.30;99.90;;;;;;9065546;26;19928;-75
2024/04/15 19:36:43;;;;;;;;;;;6.30;99.90;;;;;;9065862;26;20044;-75
2024/04/15 19:40:45;;;;;;;;;;;6.30;99.90;;;;;;9072195;26;19960;-75
2024/04/15 19:44:46;;;;;;;;;;;6.20;99.90;;;;;;9066894;26;19932;-75
2024/04/15 19:48:48;;;;;;;;;;;6.20;99.90;;;;;;9070683;26;20363;-75
2024/04/15 19:52:50;;;;;;;;;;;6.10;99.90;;;;;;9068798;26;19923;-75
2024/04/15 19:56:58;;;;;;;;;;;6.10;99.90;;;;;;9063170;26;20015;-75
2024/04/15 20:01:02;;;;;;;;;;;6.00;99.90;;;;;;9064103;26;19979;-75
2024/04/15 20:05:04;;;;;;;;;;;6.00;99.90;;;;;;9063559;26;19932;-75
2024/04/15 20:09:06;;;;;;;;;;;5.90;99.90;;;;;;9068193;26;19932;-75
2024/04/15 20:13:10;;;;;;;;;;;5.90;99.90;;;;;;9069916;26;19924;-76
2024/04/15 20:17:20;;;;;;;;;;;5.90;99.90;;;;;;9062718;26;19935;-74
2024/04/15 20:21:22;;;;;;;;;;;5.80;99.90;;;;;;9068949;26;19993;-75
2024/04/15 20:25:24;;;;;;;;;;;5.80;99.90;;;;;;9067391;26;19931;-75
2024/04/15 20:29:28;;;;;;;;;;;5.90;99.90;;;;;;9062655;26;19923;-76
2024/04/15 20:33:30;;;;;;;;;;;5.90;99.90;;;;;;9066454;26;20232;-75
2024/04/15 20:37:32;;;;;;;;;;;5.90;99.90;;;;;;9060781;26;19952;-75
2024/04/15 20:41:34;;;;;;;;;;;5.90;99.90;;;;;;9065670;26;19925;-75
2024/04/15 20:45:36;;;;;;;;;;;5.90;99.90;;;;;;9062490;26;19924;-75
2024/04/15 20:49:38;;;;;;;;;;;5.90;99.90;;;;;;9062754;26;19924;-75
2024/04/15 20:53:39;;;;;;;;;;;5.80;99.90;;;;;;9060108;26;19936;-75
2024/04/15 20:57:41;;;;;;;;;;;5.70;99.90;;;;;;9058873;26;19923;-75
2024/04/15 21:01:43;;;;;;;;;;;5.70;99.90;;;;;;9059661;26;20384;-75
2024/04/15 21:05:45;;;;;;;;;;;5.60;99.90;;;;;;9046257;26;19925;-75
2024/04/15 21:09:46;;;;;;;;;;;5.40;99.90;;;;;;9044409;26;19956;-74
2024/04/15 21:13:48;;;;;;;;;;;5.30;99.90;;;;;;9061366;26;19991;-75
2024/04/15 21:17:50;;;;;;;;;;;5.20;99.90;;;;;;9051449;26;19975;-75
2024/04/15 21:21:52;;;;;;;;;;;5.10;99.90;;;;;;9059811;26;19923;-77
2024/04/15 21:25:54;;;;;;;;;;;5.10;99.90;;;;;;9059403;26;19924;-76
2024/04/15 21:29:55;;;;;;;;;;;5.10;99.90;;;;;;9041040;26;19924;-76
2024/04/15 21:33:59;;;;;;;;;;;5.20;99.90;;;;;;9053727;26;19936;-77
2024/04/15 21:38:00;;;;;;;;;;;5.30;99.90;;;;;;9056181;26;19936;-77
2024/04/15 21:42:02;;;;;;;;;;;5.30;99.90;;;;;;9053373;26;19953;-76
2024/04/15 21:46:04;;;;;;;;;;;5.40;99.90;;;;;;9043797;26;20008;-77
2024/04/15 21:50:06;;;;;;;;;;;5.50;99.90;;;;;;9051541;26;20320;-77
2024/04/15 21:54:08;;;;;;;;;;;5.60;99.90;;;;;;9045286;26;20350;-77
2024/04/15 21:58:09;;;;;;;;;;;5.70;99.90;;;;;;9046894;26;20505;-77
2024/04/15 22:02:11;;;;;;;;;;;5.80;99.90;;;;;;9036163;26;19924;-77
2024/04/15 22:06:38;;;;;;;;;;;5.90;99.90;;;;;;9037677;26;19993;-77
2024/04/15 22:10:40;;;;;;;;;;;5.80;99.90;;;;;;9053379;26;19931;-76
2024/04/15 22:14:42;;;;;;;;;;;5.80;99.90;;;;;;9049071;26;19924;-77
2024/04/15 22:18:44;;;;;;;;;;;5.80;99.90;;;;;;9081119;26;19930;-76
2024/04/15 22:22:46;;;;;;;;;;;5.80;99.90;;;;;;9053985;26;20336;-77
2024/04/15 22:36:56;;;;;;;;;;;6.10;99.90;;;;;;9054451;26;19989;-75
2024/04/15 22:40:58;;;;;;;;;;;6.30;99.90;;;;;;9048681;26;19930;-76
2024/04/15 22:45:00;;;;;;;;;;;6.40;99.90;;;;;;9025623;26;19935;-77
2024/04/15 22:49:03;;;;;;;;;;;6.40;99.90;;;;;;9089920;26;19931;-77
2024/04/15 22:53:04;;;;;;;;;;;6.50;99.90;;;;;;9045024;26;19923;-77
2024/04/15 22:57:06;;;;;;;;;;;6.60;99.90;;;;;;9048294;26;19968;-76
2024/04/15 23:01:08;;;;;;;;;;;6.60;99.90;;;;;;9079408;26;20294;-76
2024/04/15 23:05:10;;;;;;;;;;;6.70;99.90;;;;;;9037870;26;20340;-76
2024/04/15 23:09:12;;;;;;;;;;;6.80;99.90;;;;;;9055502;26;20420;-76
2024/04/15 23:13:13;;;;;;;;;;;6.90;99.90;;;;;;9045635;26;19924;-76
2024/04/15 23:17:15;;;;;;;;;;;6.90;99.90;;;;;;9036500;26;19936;-77
2024/04/15 23:21:17;;;;;;;;;;;7.00;99.90;;;;;;9034271;26;19936;-76
2024/04/15 23:29:59;;;;;;;;;;;7.10;99.90;;;;;;9055122;26;20267;-76
2024/04/15 23:34:01;;;;;;;;;;;7.10;99.90;;;;;;9047198;26;19956;-77
2024/04/15 23:38:03;;;;;;;;;;;7.10;99.90;;;;;;9051910;26;19925;-76
2024/04/15 23:42:05;;;;;;;;;;;7.10;99.90;;;;;;9058111;26;19936;-77
2024/04/15 23:46:07;;;;;;;;;;;7.10;99.90;;;;;;9049131;26;19936;-77
2024/04/15 23:50:09;;;;;;;;;;;7.20;99.90;;;;;;9057878;26;19931;-77